Huvudsida
METAR-TAF:

METAR-TAF

Flygplatser :

Devi Ahilyabai Holkar International Airport

Indore, Indien

latitud: 22-43N, longitud: 075-48E, höjd: 561 m

Aktuellt väderrapport

Denna rapport gjordes för 38 minuter sedan, klockan 09:00 UTC
Vind 9 kt från ost/nordost
Temperatur 42°C
Fuktighet 18%
Tryck 1005 hPa
Sikt: 6000 m
Få moln på en höjd av 2500 ft
Spridda moln på en höjd av 3000 ft

METAR: VAID 200900Z 07009KT 6000 FEW025 SCT030 42/13 Q1005 NOSIG

Tid: 15:08 (09:38 UTC)

Väderprognos

Denna rapport gjordes för 1 timme och 38 minuter sedan, klockan 08:00 UTC
Prognos gäller från 20 kl. 09 UTC till 20 kl. 18 UTC
Vind 8 kt från väst/nordväst
Sikt: 6000 m
Få moln på en höjd av 2000 ft
Spridda moln på en höjd av 10000 ft
Blir
från 20 kl. 16 UTC till 20 kl. 18 UTC
Vind 8 kt från nord
Sikt: 6000 m
Spridda moln på en höjd av 10000 ft

TAF: VAID 200800Z 2009/2018 30008KT 6000 FEW020 SCT100 BECMG 2016/2018 36008KT 6000 SCT100

Aktuella väderrapporter och prognoser från 4000 flygplatser (METAR- och TAF-rapporter).

De tillgängliga stationerna syns som gula och röda prickar på kartan.

För musen över prickarna för att se namnen på stationerna.

Klicka sedan för att få väderrapporter och prognoser.

För att ändra kartan: Klicka på de gröna knapparna med ett svart kors på för att zooma in; den gröna knappen med ett streck på för att zooma ut; eller på de gröna pilarna för angränsande kartor.


METAR-TAF: